sensor_id;sensor_type;location;lat;lon;timestamp;P1;durP1;ratioP1;P2;durP2;ratioP2
64543;SDS011;50936;51.660;5.616;2023-03-01T00:01:38;13.50;;;7.60;;
64543;SDS011;50936;51.660;5.616;2023-03-01T00:04:06;16.42;;;7.75;;
64543;SDS011;50936;51.660;5.616;2023-03-01T00:06:32;14.18;;;7.80;;
64543;SDS011;50936;51.660;5.616;2023-03-01T00:08:59;14.75;;;8.48;;
64543;SDS011;50936;51.660;5.616;2023-03-01T00:11:27;15.95;;;7.88;;
64543;SDS011;50936;51.660;5.616;2023-03-01T00:13:58;15.13;;;7.57;;
64543;SDS011;50936;51.660;5.616;2023-03-01T00:16:31;18.40;;;7.68;;
64543;SDS011;50936;51.660;5.616;2023-03-01T00:19:18;19.38;;;8.63;;
64543;SDS011;50936;51.660;5.616;2023-03-01T00:21:46;14.65;;;7.47;;
64543;SDS011;50936;51.660;5.616;2023-03-01T00:24:15;15.60;;;7.95;;
64543;SDS011;50936;51.660;5.616;2023-03-01T00:26:43;15.45;;;8.07;;
64543;SDS011;50936;51.660;5.616;2023-03-01T00:29:10;15.07;;;8.02;;
64543;SDS011;50936;51.660;5.616;2023-03-01T00:31:37;16.05;;;7.43;;
64543;SDS011;50936;51.660;5.616;2023-03-01T00:34:04;15.85;;;7.18;;
64543;SDS011;50936;51.660;5.616;2023-03-01T00:36:33;17.27;;;8.07;;
64543;SDS011;50936;51.660;5.616;2023-03-01T00:39:03;16.45;;;7.85;;
64543;SDS011;50936;51.660;5.616;2023-03-01T00:41:34;15.73;;;8.40;;
64543;SDS011;50936;51.660;5.616;2023-03-01T00:44:01;15.27;;;8.10;;
64543;SDS011;50936;51.660;5.616;2023-03-01T00:46:28;15.77;;;7.90;;
64543;SDS011;50936;51.660;5.616;2023-03-01T00:48:57;15.95;;;7.75;;
64543;SDS011;50936;51.660;5.616;2023-03-01T00:51:25;15.90;;;8.77;;
64543;SDS011;50936;51.660;5.616;2023-03-01T00:53:56;15.05;;;8.07;;
64543;SDS011;50936;51.660;5.616;2023-03-01T00:56:26;15.15;;;7.60;;
64543;SDS011;50936;51.660;5.616;2023-03-01T00:58:53;14.77;;;7.13;;
64543;SDS011;50936;51.660;5.616;2023-03-01T01:01:22;13.85;;;7.68;;
64543;SDS011;50936;51.660;5.616;2023-03-01T01:03:55;13.38;;;7.40;;
64543;SDS011;50936;51.660;5.616;2023-03-01T01:06:29;14.65;;;7.38;;
64543;SDS011;50936;51.660;5.616;2023-03-01T01:09:00;16.58;;;7.57;;
64543;SDS011;50936;51.660;5.616;2023-03-01T01:11:29;18.83;;;7.68;;
64543;SDS011;50936;51.660;5.616;2023-03-01T01:13:57;14.63;;;8.20;;
64543;SDS011;50936;51.660;5.616;2023-03-01T01:16:26;15.93;;;7.18;;
64543;SDS011;50936;51.660;5.616;2023-03-01T01:18:55;17.42;;;6.82;;
64543;SDS011;50936;51.660;5.616;2023-03-01T01:21:23;16.13;;;7.80;;
64543;SDS011;50936;51.660;5.616;2023-03-01T01:23:51;15.73;;;8.05;;
64543;SDS011;50936;51.660;5.616;2023-03-01T01:26:23;20.00;;;7.47;;
64543;SDS011;50936;51.660;5.616;2023-03-01T01:29:01;14.18;;;7.35;;
64543;SDS011;50936;51.660;5.616;2023-03-01T01:31:31;12.95;;;7.30;;
64543;SDS011;50936;51.660;5.616;2023-03-01T01:34:00;15.90;;;7.30;;
64543;SDS011;50936;51.660;5.616;2023-03-01T01:36:29;15.48;;;7.35;;
64543;SDS011;50936;51.660;5.616;2023-03-01T01:38:58;16.08;;;7.95;;
64543;SDS011;50936;51.660;5.616;2023-03-01T01:41:26;16.17;;;7.32;;
64543;SDS011;50936;51.660;5.616;2023-03-01T01:52:11;14.18;;;7.25;;
64543;SDS011;50936;51.660;5.616;2023-03-01T01:55:16;17.00;;;7.13;;
64543;SDS011;50936;51.660;5.616;2023-03-01T01:57:53;13.68;;;6.93;;
64543;SDS011;50936;51.660;5.616;2023-03-01T02:00:28;18.00;;;7.30;;
64543;SDS011;50936;51.660;5.616;2023-03-01T02:03:04;13.73;;;7.13;;
64543;SDS011;50936;51.660;5.616;2023-03-01T02:08:21;16.65;;;7.00;;
64543;SDS011;50936;51.660;5.616;2023-03-01T02:10:54;12.02;;;6.60;;
64543;SDS011;50936;51.660;5.616;2023-03-01T02:13:23;18.98;;;7.53;;
64543;SDS011;50936;51.660;5.616;2023-03-01T02:15:50;15.23;;;7.47;;
64543;SDS011;50936;51.660;5.616;2023-03-01T02:18:17;14.43;;;7.45;;
64543;SDS011;50936;51.660;5.616;2023-03-01T02:24:03;13.88;;;7.70;;
64543;SDS011;50936;51.660;5.616;2023-03-01T02:26:53;13.75;;;7.28;;
64543;SDS011;50936;51.660;5.616;2023-03-01T02:29:23;13.27;;;6.47;;
64543;SDS011;50936;51.660;5.616;2023-03-01T02:31:51;15.02;;;7.22;;
64543;SDS011;50936;51.660;5.616;2023-03-01T02:34:24;13.32;;;5.78;;
64543;SDS011;50936;51.660;5.616;2023-03-01T02:36:54;13.38;;;6.68;;
64543;SDS011;50936;51.660;5.616;2023-03-01T02:39:32;13.73;;;6.53;;
64543;SDS011;50936;51.660;5.616;2023-03-01T02:42:10;13.73;;;7.07;;
64543;SDS011;50936;51.660;5.616;2023-03-01T02:44:44;17.60;;;6.38;;
64543;SDS011;50936;51.660;5.616;2023-03-01T02:47:12;14.23;;;6.78;;
64543;SDS011;50936;51.660;5.616;2023-03-01T02:49:40;10.77;;;5.63;;
64543;SDS011;50936;51.660;5.616;2023-03-01T02:57:48;14.27;;;6.90;;
64543;SDS011;50936;51.660;5.616;2023-03-01T03:00:23;14.98;;;7.03;;
64543;SDS011;50936;51.660;5.616;2023-03-01T03:03:01;13.98;;;7.05;;
64543;SDS011;50936;51.660;5.616;2023-03-01T03:05:29;12.63;;;6.43;;
64543;SDS011;50936;51.660;5.616;2023-03-01T03:07:58;14.25;;;6.57;;
64543;SDS011;50936;51.660;5.616;2023-03-01T03:10:34;13.80;;;6.43;;
64543;SDS011;50936;51.660;5.616;2023-03-01T03:13:10;14.13;;;6.68;;
64543;SDS011;50936;51.660;5.616;2023-03-01T03:15:42;13.20;;;5.95;;
64543;SDS011;50936;51.660;5.616;2023-03-01T03:18:11;11.45;;;6.68;;
64543;SDS011;50936;51.660;5.616;2023-03-01T03:20:41;15.98;;;6.28;;
64543;SDS011;50936;51.660;5.616;2023-03-01T03:23:10;14.55;;;6.60;;
64543;SDS011;50936;51.660;5.616;2023-03-01T03:25:37;12.48;;;5.72;;
64543;SDS011;50936;51.660;5.616;2023-03-01T03:28:05;15.52;;;7.22;;
64543;SDS011;50936;51.660;5.616;2023-03-01T03:30:38;12.88;;;5.80;;
64543;SDS011;50936;51.660;5.616;2023-03-01T03:33:07;14.95;;;6.72;;
64543;SDS011;50936;51.660;5.616;2023-03-01T03:35:43;14.88;;;6.80;;
64543;SDS011;50936;51.660;5.616;2023-03-01T03:38:16;15.10;;;5.85;;
64543;SDS011;50936;51.660;5.616;2023-03-01T03:41:08;14.35;;;6.70;;
64543;SDS011;50936;51.660;5.616;2023-03-01T03:43:35;12.80;;;6.70;;
64543;SDS011;50936;51.660;5.616;2023-03-01T03:46:05;13.57;;;6.45;;
64543;SDS011;50936;51.660;5.616;2023-03-01T03:48:34;14.27;;;6.28;;
64543;SDS011;50936;51.660;5.616;2023-03-01T03:51:09;13.63;;;6.80;;
64543;SDS011;50936;51.660;5.616;2023-03-01T03:53:43;13.73;;;6.35;;
64543;SDS011;50936;51.660;5.616;2023-03-01T03:56:11;14.15;;;6.88;;
64543;SDS011;50936;51.660;5.616;2023-03-01T03:58:38;14.23;;;5.60;;
64543;SDS011;50936;51.660;5.616;2023-03-01T04:01:05;12.07;;;6.65;;
64543;SDS011;50936;51.660;5.616;2023-03-01T04:03:33;13.60;;;7.10;;
64543;SDS011;50936;51.660;5.616;2023-03-01T04:06:01;12.25;;;5.97;;
64543;SDS011;50936;51.660;5.616;2023-03-01T04:08:30;14.02;;;7.10;;
64543;SDS011;50936;51.660;5.616;2023-03-01T04:11:01;15.50;;;6.93;;
64543;SDS011;50936;51.660;5.616;2023-03-01T04:13:51;12.98;;;6.63;;
64543;SDS011;50936;51.660;5.616;2023-03-01T04:16:21;21.27;;;6.70;;
64543;SDS011;50936;51.660;5.616;2023-03-01T04:18:48;13.80;;;6.30;;
64543;SDS011;50936;51.660;5.616;2023-03-01T04:21:17;12.85;;;6.28;;
64543;SDS011;50936;51.660;5.616;2023-03-01T04:23:46;13.10;;;6.25;;
64543;SDS011;50936;51.660;5.616;2023-03-01T04:26:13;14.85;;;6.32;;
64543;SDS011;50936;51.660;5.616;2023-03-01T04:28:41;12.73;;;6.18;;
64543;SDS011;50936;51.660;5.616;2023-03-01T04:31:13;12.52;;;6.50;;
64543;SDS011;50936;51.660;5.616;2023-03-01T04:33:45;15.43;;;6.28;;
64543;SDS011;50936;51.660;5.616;2023-03-01T04:36:18;15.73;;;6.97;;
64543;SDS011;50936;51.660;5.616;2023-03-01T04:38:49;13.85;;;7.40;;
64543;SDS011;50936;51.660;5.616;2023-03-01T04:41:18;13.60;;;6.60;;
64543;SDS011;50936;51.660;5.616;2023-03-01T04:43:47;14.07;;;6.70;;
64543;SDS011;50936;51.660;5.616;2023-03-01T04:46:16;11.10;;;6.32;;
64543;SDS011;50936;51.660;5.616;2023-03-01T04:48:45;13.85;;;6.75;;
64543;SDS011;50936;51.660;5.616;2023-03-01T04:51:14;14.43;;;7.03;;
64543;SDS011;50936;51.660;5.616;2023-03-01T04:53:42;14.38;;;5.82;;
64543;SDS011;50936;51.660;5.616;2023-03-01T04:56:10;12.55;;;6.40;;
64543;SDS011;50936;51.660;5.616;2023-03-01T04:58:40;14.52;;;7.35;;
64543;SDS011;50936;51.660;5.616;2023-03-01T05:01:15;13.55;;;7.25;;
64543;SDS011;50936;51.660;5.616;2023-03-01T05:03:47;13.48;;;6.43;;
64543;SDS011;50936;51.660;5.616;2023-03-01T05:06:17;14.60;;;6.65;;
64543;SDS011;50936;51.660;5.616;2023-03-01T05:08:45;13.77;;;6.90;;
64543;SDS011;50936;51.660;5.616;2023-03-01T05:11:12;13.95;;;6.20;;
64543;SDS011;50936;51.660;5.616;2023-03-01T05:13:39;16.90;;;7.43;;
64543;SDS011;50936;51.660;5.616;2023-03-01T05:16:06;14.95;;;7.25;;
64543;SDS011;50936;51.660;5.616;2023-03-01T05:18:38;14.82;;;6.78;;
64543;SDS011;50936;51.660;5.616;2023-03-01T05:21:07;16.08;;;7.38;;
64543;SDS011;50936;51.660;5.616;2023-03-01T05:23:39;16.42;;;7.22;;
64543;SDS011;50936;51.660;5.616;2023-03-01T05:26:07;15.23;;;7.28;;
64543;SDS011;50936;51.660;5.616;2023-03-01T05:28:52;19.08;;;7.18;;
64543;SDS011;50936;51.660;5.616;2023-03-01T05:31:23;13.75;;;6.97;;
64543;SDS011;50936;51.660;5.616;2023-03-01T05:33:50;14.45;;;7.25;;
64543;SDS011;50936;51.660;5.616;2023-03-01T05:36:16;17.98;;;7.78;;
64543;SDS011;50936;51.660;5.616;2023-03-01T05:38:44;13.50;;;7.07;;
64543;SDS011;50936;51.660;5.616;2023-03-01T05:41:14;15.25;;;7.22;;
64543;SDS011;50936;51.660;5.616;2023-03-01T05:43:43;20.88;;;7.40;;
64543;SDS011;50936;51.660;5.616;2023-03-01T05:46:11;16.20;;;7.45;;
64543;SDS011;50936;51.660;5.616;2023-03-01T05:48:39;16.77;;;7.13;;
64543;SDS011;50936;51.660;5.616;2023-03-01T05:51:06;13.68;;;6.65;;
64543;SDS011;50936;51.660;5.616;2023-03-01T05:53:33;12.32;;;6.35;;
64543;SDS011;50936;51.660;5.616;2023-03-01T05:56:02;18.52;;;8.30;;
64543;SDS011;50936;51.660;5.616;2023-03-01T05:58:30;16.17;;;6.93;;
64543;SDS011;50936;51.660;5.616;2023-03-01T06:00:58;14.48;;;7.28;;
64543;SDS011;50936;51.660;5.616;2023-03-01T06:03:26;16.88;;;8.20;;
64543;SDS011;50936;51.660;5.616;2023-03-01T06:05:56;14.65;;;7.75;;
64543;SDS011;50936;51.660;5.616;2023-03-01T06:08:24;15.02;;;6.85;;
64543;SDS011;50936;51.660;5.616;2023-03-01T06:10:53;14.20;;;7.30;;
64543;SDS011;50936;51.660;5.616;2023-03-01T06:13:20;14.98;;;6.70;;
64543;SDS011;50936;51.660;5.616;2023-03-01T06:15:49;17.27;;;7.47;;
64543;SDS011;50936;51.660;5.616;2023-03-01T06:18:18;16.10;;;6.78;;
64543;SDS011;50936;51.660;5.616;2023-03-01T06:20:45;14.80;;;7.13;;
64543;SDS011;50936;51.660;5.616;2023-03-01T06:23:20;14.10;;;6.63;;
64543;SDS011;50936;51.660;5.616;2023-03-01T06:25:48;17.40;;;6.90;;
64543;SDS011;50936;51.660;5.616;2023-03-01T06:28:15;16.38;;;7.07;;
64543;SDS011;50936;51.660;5.616;2023-03-01T06:30:42;14.75;;;6.88;;
64543;SDS011;50936;51.660;5.616;2023-03-01T06:33:09;12.82;;;6.00;;
64543;SDS011;50936;51.660;5.616;2023-03-01T06:35:36;15.15;;;7.55;;
64543;SDS011;50936;51.660;5.616;2023-03-01T06:38:03;14.00;;;6.97;;
64543;SDS011;50936;51.660;5.616;2023-03-01T06:40:31;14.45;;;7.32;;
64543;SDS011;50936;51.660;5.616;2023-03-01T06:43:01;15.85;;;7.50;;
64543;SDS011;50936;51.660;5.616;2023-03-01T06:45:28;18.92;;;7.43;;
64543;SDS011;50936;51.660;5.616;2023-03-01T06:48:02;14.40;;;7.40;;
64543;SDS011;50936;51.660;5.616;2023-03-01T06:50:34;15.45;;;6.80;;
64543;SDS011;50936;51.660;5.616;2023-03-01T06:53:02;15.23;;;7.35;;
64543;SDS011;50936;51.660;5.616;2023-03-01T06:55:30;14.98;;;6.60;;
64543;SDS011;50936;51.660;5.616;2023-03-01T06:58:00;18.33;;;8.23;;
64543;SDS011;50936;51.660;5.616;2023-03-01T07:00:29;15.15;;;7.07;;
64543;SDS011;50936;51.660;5.616;2023-03-01T07:03:00;15.43;;;7.10;;
64543;SDS011;50936;51.660;5.616;2023-03-01T07:05:29;17.65;;;7.20;;
64543;SDS011;50936;51.660;5.616;2023-03-01T07:07:57;14.57;;;7.53;;
64543;SDS011;50936;51.660;5.616;2023-03-01T07:10:24;15.65;;;8.18;;
64543;SDS011;50936;51.660;5.616;2023-03-01T07:12:54;16.50;;;8.25;;
64543;SDS011;50936;51.660;5.616;2023-03-01T07:15:22;15.65;;;8.00;;
64543;SDS011;50936;51.660;5.616;2023-03-01T07:17:49;14.93;;;7.45;;
64543;SDS011;50936;51.660;5.616;2023-03-01T07:20:20;15.35;;;7.38;;
64543;SDS011;50936;51.660;5.616;2023-03-01T07:22:52;13.93;;;7.57;;
64543;SDS011;50936;51.660;5.616;2023-03-01T07:25:20;17.38;;;7.78;;
64543;SDS011;50936;51.660;5.616;2023-03-01T07:27:51;18.25;;;7.35;;
64543;SDS011;50936;51.660;5.616;2023-03-01T07:30:19;18.23;;;8.05;;
64543;SDS011;50936;51.660;5.616;2023-03-01T07:32:47;11.68;;;6.47;;
64543;SDS011;50936;51.660;5.616;2023-03-01T07:35:15;15.82;;;7.80;;
64543;SDS011;50936;51.660;5.616;2023-03-01T07:37:42;15.45;;;7.75;;
64543;SDS011;50936;51.660;5.616;2023-03-01T07:40:09;15.27;;;7.18;;
64543;SDS011;50936;51.660;5.616;2023-03-01T07:42:37;17.48;;;7.70;;
64543;SDS011;50936;51.660;5.616;2023-03-01T07:45:04;13.32;;;7.05;;
64543;SDS011;50936;51.660;5.616;2023-03-01T07:47:33;11.63;;;6.40;;
64543;SDS011;50936;51.660;5.616;2023-03-01T07:49:59;15.35;;;7.05;;
64543;SDS011;50936;51.660;5.616;2023-03-01T07:52:27;14.98;;;6.82;;
64543;SDS011;50936;51.660;5.616;2023-03-01T07:54:55;13.27;;;5.97;;
64543;SDS011;50936;51.660;5.616;2023-03-01T07:57:22;13.70;;;6.43;;
64543;SDS011;50936;51.660;5.616;2023-03-01T07:59:49;11.70;;;7.00;;
64543;SDS011;50936;51.660;5.616;2023-03-01T08:02:16;13.10;;;6.80;;
64543;SDS011;50936;51.660;5.616;2023-03-01T08:04:43;12.55;;;6.32;;
64543;SDS011;50936;51.660;5.616;2023-03-01T08:07:10;14.30;;;6.40;;
64543;SDS011;50936;51.660;5.616;2023-03-01T08:09:37;14.85;;;7.53;;
64543;SDS011;50936;51.660;5.616;2023-03-01T08:12:04;14.55;;;7.38;;
64543;SDS011;50936;51.660;5.616;2023-03-01T08:14:32;13.23;;;6.63;;
64543;SDS011;50936;51.660;5.616;2023-03-01T08:16:59;16.02;;;7.18;;
64543;SDS011;50936;51.660;5.616;2023-03-01T08:19:26;16.58;;;7.82;;
64543;SDS011;50936;51.660;5.616;2023-03-01T08:21:54;12.70;;;6.50;;
64543;SDS011;50936;51.660;5.616;2023-03-01T08:24:24;15.15;;;7.80;;
64543;SDS011;50936;51.660;5.616;2023-03-01T08:26:52;16.52;;;7.13;;
64543;SDS011;50936;51.660;5.616;2023-03-01T08:29:19;16.02;;;7.82;;
64543;SDS011;50936;51.660;5.616;2023-03-01T08:31:46;12.02;;;6.47;;
64543;SDS011;50936;51.660;5.616;2023-03-01T08:34:15;14.80;;;8.10;;
64543;SDS011;50936;51.660;5.616;2023-03-01T08:36:44;14.15;;;6.82;;
64543;SDS011;50936;51.660;5.616;2023-03-01T08:39:14;18.92;;;7.90;;
64543;SDS011;50936;51.660;5.616;2023-03-01T08:41:46;14.23;;;6.22;;
64543;SDS011;50936;51.660;5.616;2023-03-01T08:44:14;18.08;;;6.78;;
64543;SDS011;50936;51.660;5.616;2023-03-01T08:46:47;14.45;;;6.80;;
64543;SDS011;50936;51.660;5.616;2023-03-01T08:49:17;14.90;;;7.20;;
64543;SDS011;50936;51.660;5.616;2023-03-01T08:51:46;9.45;;;4.63;;
64543;SDS011;50936;51.660;5.616;2023-03-01T08:54:15;12.38;;;6.50;;
64543;SDS011;50936;51.660;5.616;2023-03-01T08:59:15;8.75;;;5.03;;
64543;SDS011;50936;51.660;5.616;2023-03-01T09:01:43;13.35;;;7.20;;
64543;SDS011;50936;51.660;5.616;2023-03-01T09:04:11;14.50;;;7.10;;
64543;SDS011;50936;51.660;5.616;2023-03-01T09:06:40;13.20;;;7.18;;
64543;SDS011;50936;51.660;5.616;2023-03-01T09:09:12;18.33;;;5.90;;
64543;SDS011;50936;51.660;5.616;2023-03-01T09:11:45;19.33;;;7.80;;
64543;SDS011;50936;51.660;5.616;2023-03-01T09:14:13;10.05;;;4.95;;
64543;SDS011;50936;51.660;5.616;2023-03-01T09:16:40;13.85;;;7.00;;
64543;SDS011;50936;51.660;5.616;2023-03-01T09:19:07;10.60;;;5.00;;
64543;SDS011;50936;51.660;5.616;2023-03-01T09:21:35;15.35;;;6.72;;
64543;SDS011;50936;51.660;5.616;2023-03-01T09:24:13;15.77;;;6.82;;
64543;SDS011;50936;51.660;5.616;2023-03-01T09:26:41;12.55;;;6.22;;
64543;SDS011;50936;51.660;5.616;2023-03-01T09:29:09;19.63;;;8.32;;
64543;SDS011;50936;51.660;5.616;2023-03-01T09:31:37;14.60;;;6.60;;
64543;SDS011;50936;51.660;5.616;2023-03-01T09:34:04;10.90;;;6.35;;
64543;SDS011;50936;51.660;5.616;2023-03-01T09:36:32;11.43;;;5.53;;
64543;SDS011;50936;51.660;5.616;2023-03-01T09:39:00;10.15;;;4.13;;
64543;SDS011;50936;51.660;5.616;2023-03-01T09:47:12;7.88;;;3.92;;
64543;SDS011;50936;51.660;5.616;2023-03-01T09:49:52;11.00;;;4.30;;
64543;SDS011;50936;51.660;5.616;2023-03-01T09:52:58;9.98;;;4.72;;
64543;SDS011;50936;51.660;5.616;2023-03-01T09:55:49;10.02;;;4.68;;
64543;SDS011;50936;51.660;5.616;2023-03-01T09:58:51;9.70;;;4.88;;
64543;SDS011;50936;51.660;5.616;2023-03-01T10:04:45;7.53;;;3.78;;
64543;SDS011;50936;51.660;5.616;2023-03-01T10:10:32;9.18;;;3.97;;
64543;SDS011;50936;51.660;5.616;2023-03-01T10:13:14;11.93;;;5.72;;
64543;SDS011;50936;51.660;5.616;2023-03-01T10:15:51;11.13;;;4.82;;
64543;SDS011;50936;51.660;5.616;2023-03-01T10:18:30;7.63;;;4.60;;
64543;SDS011;50936;51.660;5.616;2023-03-01T10:21:08;13.35;;;6.13;;
64543;SDS011;50936;51.660;5.616;2023-03-01T10:23:43;9.88;;;4.30;;
64543;SDS011;50936;51.660;5.616;2023-03-01T10:31:44;12.23;;;6.22;;
64543;SDS011;50936;51.660;5.616;2023-03-01T10:34:19;10.27;;;5.07;;
64543;SDS011;50936;51.660;5.616;2023-03-01T10:36:56;8.55;;;4.07;;
64543;SDS011;50936;51.660;5.616;2023-03-01T10:39:35;12.60;;;5.18;;
64543;SDS011;50936;51.660;5.616;2023-03-01T10:42:03;9.40;;;4.82;;
64543;SDS011;50936;51.660;5.616;2023-03-01T10:44:47;9.23;;;4.82;;
64543;SDS011;50936;51.660;5.616;2023-03-01T10:47:17;10.32;;;4.80;;
64543;SDS011;50936;51.660;5.616;2023-03-01T10:49:55;10.30;;;5.05;;
64543;SDS011;50936;51.660;5.616;2023-03-01T10:52:33;13.13;;;5.53;;
64543;SDS011;50936;51.660;5.616;2023-03-01T10:58:20;11.43;;;5.40;;
64543;SDS011;50936;51.660;5.616;2023-03-01T11:00:58;10.57;;;5.88;;
64543;SDS011;50936;51.660;5.616;2023-03-01T11:03:44;16.20;;;6.47;;
64543;SDS011;50936;51.660;5.616;2023-03-01T11:06:29;9.00;;;4.72;;
64543;SDS011;50936;51.660;5.616;2023-03-01T11:08:56;8.77;;;4.53;;
64543;SDS011;50936;51.660;5.616;2023-03-01T11:11:33;9.77;;;5.25;;
64543;SDS011;50936;51.660;5.616;2023-03-01T11:14:06;10.32;;;5.50;;
64543;SDS011;50936;51.660;5.616;2023-03-01T11:17:33;11.07;;;5.10;;
64543;SDS011;50936;51.660;5.616;2023-03-01T11:20:40;9.50;;;5.20;;
64543;SDS011;50936;51.660;5.616;2023-03-01T11:23:12;12.65;;;6.43;;
64543;SDS011;50936;51.660;5.616;2023-03-01T11:25:52;10.18;;;5.07;;
64543;SDS011;50936;51.660;5.616;2023-03-01T11:28:25;10.73;;;5.80;;
64543;SDS011;50936;51.660;5.616;2023-03-01T11:31:09;9.85;;;4.47;;
64543;SDS011;50936;51.660;5.616;2023-03-01T11:34:10;12.06;;;5.59;;
64543;SDS011;50936;51.660;5.616;2023-03-01T11:36:51;11.48;;;6.13;;
64543;SDS011;50936;51.660;5.616;2023-03-01T11:39:39;8.38;;;4.13;;
64543;SDS011;50936;51.660;5.616;2023-03-01T11:42:47;8.95;;;4.55;;
64543;SDS011;50936;51.660;5.616;2023-03-01T11:45:38;9.25;;;4.60;;
64543;SDS011;50936;51.660;5.616;2023-03-01T11:48:25;10.07;;;5.38;;
64543;SDS011;50936;51.660;5.616;2023-03-01T11:51:23;15.93;;;5.47;;
64543;SDS011;50936;51.660;5.616;2023-03-01T11:54:06;11.68;;;6.28;;
64543;SDS011;50936;51.660;5.616;2023-03-01T12:14:17;9.98;;;6.07;;
64543;SDS011;50936;51.660;5.616;2023-03-01T12:37:13;9.50;;;4.60;;
64543;SDS011;50936;51.660;5.616;2023-03-01T12:42:58;10.30;;;5.60;;
64543;SDS011;50936;51.660;5.616;2023-03-01T12:46:31;11.18;;;4.53;;
64543;SDS011;50936;51.660;5.616;2023-03-01T12:49:10;10.80;;;6.22;;
64543;SDS011;50936;51.660;5.616;2023-03-01T12:51:50;12.02;;;6.22;;
64543;SDS011;50936;51.660;5.616;2023-03-01T12:54:36;10.95;;;5.95;;
64543;SDS011;50936;51.660;5.616;2023-03-01T13:03:14;9.23;;;5.18;;
64543;SDS011;50936;51.660;5.616;2023-03-01T13:11:53;9.88;;;5.72;;
64543;SDS011;50936;51.660;5.616;2023-03-01T13:16:48;9.52;;;5.47;;
64543;SDS011;50936;51.660;5.616;2023-03-01T13:19:20;9.18;;;4.75;;
64543;SDS011;50936;51.660;5.616;2023-03-01T13:21:55;10.02;;;5.75;;
64543;SDS011;50936;51.660;5.616;2023-03-01T13:27:09;10.43;;;6.10;;
64543;SDS011;50936;51.660;5.616;2023-03-01T13:29:52;11.77;;;6.82;;
64543;SDS011;50936;51.660;5.616;2023-03-01T13:32:26;11.20;;;5.55;;
64543;SDS011;50936;51.660;5.616;2023-03-01T13:37:41;10.52;;;5.93;;
64543;SDS011;50936;51.660;5.616;2023-03-01T13:42:45;13.50;;;4.63;;
64543;SDS011;50936;51.660;5.616;2023-03-01T13:48:11;9.88;;;5.90;;
64543;SDS011;50936;51.660;5.616;2023-03-01T13:50:54;10.38;;;6.07;;
64543;SDS011;50936;51.660;5.616;2023-03-01T13:53:33;10.90;;;5.68;;
64543;SDS011;50936;51.660;5.616;2023-03-01T13:56:24;11.80;;;6.43;;
64543;SDS011;50936;51.660;5.616;2023-03-01T13:59:03;8.57;;;5.32;;
64543;SDS011;50936;51.660;5.616;2023-03-01T14:01:34;11.13;;;6.00;;
64543;SDS011;50936;51.660;5.616;2023-03-01T14:04:03;12.65;;;6.43;;
64543;SDS011;50936;51.660;5.616;2023-03-01T14:06:46;12.65;;;5.72;;
64543;SDS011;50936;51.660;5.616;2023-03-01T14:15:19;11.52;;;5.75;;
64543;SDS011;50936;51.660;5.616;2023-03-01T14:17:59;9.48;;;4.75;;
64543;SDS011;50936;51.660;5.616;2023-03-01T14:20:52;12.35;;;6.25;;
64543;SDS011;50936;51.660;5.616;2023-03-01T14:23:20;16.20;;;7.43;;
64543;SDS011;50936;51.660;5.616;2023-03-01T14:25:56;13.35;;;6.78;;
64543;SDS011;50936;51.660;5.616;2023-03-01T14:28:25;11.20;;;5.97;;
64543;SDS011;50936;51.660;5.616;2023-03-01T14:30:57;11.95;;;6.50;;
64543;SDS011;50936;51.660;5.616;2023-03-01T14:33:32;11.93;;;6.53;;
64543;SDS011;50936;51.660;5.616;2023-03-01T14:36:04;10.88;;;5.68;;
64543;SDS011;50936;51.660;5.616;2023-03-01T14:38:41;11.93;;;6.32;;
64543;SDS011;50936;51.660;5.616;2023-03-01T14:41:15;11.15;;;6.22;;
64543;SDS011;50936;51.660;5.616;2023-03-01T14:43:47;13.98;;;6.85;;
64543;SDS011;50936;51.660;5.616;2023-03-01T14:46:26;13.45;;;5.65;;
64543;SDS011;50936;51.660;5.616;2023-03-01T14:52:04;12.32;;;6.50;;
64543;SDS011;50936;51.660;5.616;2023-03-01T14:54:48;10.52;;;6.50;;
64543;SDS011;50936;51.660;5.616;2023-03-01T14:57:24;11.15;;;5.85;;
64543;SDS011;50936;51.660;5.616;2023-03-01T14:59:59;11.65;;;7.18;;
64543;SDS011;50936;51.660;5.616;2023-03-01T15:02:32;11.95;;;6.20;;
64543;SDS011;50936;51.660;5.616;2023-03-01T15:05:02;13.30;;;6.68;;
64543;SDS011;50936;51.660;5.616;2023-03-01T15:07:35;10.35;;;6.13;;
64543;SDS011;50936;51.660;5.616;2023-03-01T15:10:14;12.27;;;6.50;;
64543;SDS011;50936;51.660;5.616;2023-03-01T15:12:49;12.50;;;6.82;;
64543;SDS011;50936;51.660;5.616;2023-03-01T15:17:55;11.65;;;6.40;;
64543;SDS011;50936;51.660;5.616;2023-03-01T15:20:26;12.40;;;6.47;;
64543;SDS011;50936;51.660;5.616;2023-03-01T15:22:57;16.30;;;7.38;;
64543;SDS011;50936;51.660;5.616;2023-03-01T15:25:26;13.20;;;7.03;;
64543;SDS011;50936;51.660;5.616;2023-03-01T15:27:57;13.73;;;7.22;;
64543;SDS011;50936;51.660;5.616;2023-03-01T15:30:29;11.98;;;6.55;;
64543;SDS011;50936;51.660;5.616;2023-03-01T15:36:02;11.40;;;6.05;;
64543;SDS011;50936;51.660;5.616;2023-03-01T15:38:58;11.32;;;6.15;;
64543;SDS011;50936;51.660;5.616;2023-03-01T15:41:27;10.45;;;5.47;;
64543;SDS011;50936;51.660;5.616;2023-03-01T15:44:00;11.68;;;6.40;;
64543;SDS011;50936;51.660;5.616;2023-03-01T15:46:45;12.63;;;6.93;;
64543;SDS011;50936;51.660;5.616;2023-03-01T15:51:53;11.93;;;6.72;;
64543;SDS011;50936;51.660;5.616;2023-03-01T15:54:23;11.57;;;6.35;;
64543;SDS011;50936;51.660;5.616;2023-03-01T15:56:53;9.70;;;5.97;;
64543;SDS011;50936;51.660;5.616;2023-03-01T15:59:19;11.43;;;6.07;;
64543;SDS011;50936;51.660;5.616;2023-03-01T16:01:48;10.85;;;5.55;;
64543;SDS011;50936;51.660;5.616;2023-03-01T16:04:17;14.38;;;6.43;;
64543;SDS011;50936;51.660;5.616;2023-03-01T16:06:50;10.90;;;5.75;;
64543;SDS011;50936;51.660;5.616;2023-03-01T16:11:49;10.88;;;6.03;;
64543;SDS011;50936;51.660;5.616;2023-03-01T16:14:18;13.60;;;7.00;;
64543;SDS011;50936;51.660;5.616;2023-03-01T16:16:45;9.35;;;5.25;;
64543;SDS011;50936;51.660;5.616;2023-03-01T16:19:14;10.60;;;5.80;;
64543;SDS011;50936;51.660;5.616;2023-03-01T16:21:42;12.40;;;5.55;;
64543;SDS011;50936;51.660;5.616;2023-03-01T16:24:13;12.77;;;6.40;;
64543;SDS011;50936;51.660;5.616;2023-03-01T16:26:40;10.60;;;6.07;;
64543;SDS011;50936;51.660;5.616;2023-03-01T16:29:08;13.75;;;5.60;;
64543;SDS011;50936;51.660;5.616;2023-03-01T16:31:35;18.02;;;7.50;;
64543;SDS011;50936;51.660;5.616;2023-03-01T16:34:03;12.80;;;6.85;;
64543;SDS011;50936;51.660;5.616;2023-03-01T16:36:30;11.55;;;6.30;;
64543;SDS011;50936;51.660;5.616;2023-03-01T16:39:00;15.32;;;6.10;;
64543;SDS011;50936;51.660;5.616;2023-03-01T16:41:27;11.70;;;5.80;;
64543;SDS011;50936;51.660;5.616;2023-03-01T16:43:54;12.02;;;5.78;;
64543;SDS011;50936;51.660;5.616;2023-03-01T16:46:23;10.40;;;5.47;;
64543;SDS011;50936;51.660;5.616;2023-03-01T16:48:55;12.27;;;5.88;;
64543;SDS011;50936;51.660;5.616;2023-03-01T16:51:23;13.52;;;6.78;;
64543;SDS011;50936;51.660;5.616;2023-03-01T16:53:51;9.48;;;5.45;;
64543;SDS011;50936;51.660;5.616;2023-03-01T16:56:19;8.85;;;5.07;;
64543;SDS011;50936;51.660;5.616;2023-03-01T16:58:46;12.05;;;5.47;;
64543;SDS011;50936;51.660;5.616;2023-03-01T17:01:17;12.05;;;6.43;;
64543;SDS011;50936;51.660;5.616;2023-03-01T17:03:46;11.98;;;6.20;;
64543;SDS011;50936;51.660;5.616;2023-03-01T17:06:18;10.48;;;6.00;;
64543;SDS011;50936;51.660;5.616;2023-03-01T17:08:48;10.55;;;5.93;;
64543;SDS011;50936;51.660;5.616;2023-03-01T17:11:16;12.00;;;5.63;;
64543;SDS011;50936;51.660;5.616;2023-03-01T17:13:45;13.73;;;6.75;;
64543;SDS011;50936;51.660;5.616;2023-03-01T17:16:15;13.88;;;6.32;;